Mc Grath Airport
PAMC : now visible

Airfield :











YOU CAN JOIN US ON...

 
LOGIN :

Register | Disclaimer

   EN    FR    IT 

 









Legend :    VFR   Marginal VFR   IFR   Intensive IFR   Very Intensive IFR
Visi :
Ceiling :
>= 8 km
>= 3000ft
5 to 8 km
1000 to 3000 ft
1500m to 5 km
500 to 1000 ft
800 to 1500m
200 to 500 ft
< 800m
< 200 ft
Symbols :   Thunderstorms  Fog  Heavy snow  Heavy precipitations  Wind > 20 kt






- Airport Elevation : 341 ft
- IATA code : MCG


PAMC - Mc Grath

CURRENT METAR :
  • 252253Z AUTO 01011G17KT 10SM CLR M21/M26 A2995 RMK AO2 SLP154 T12111261 TSNO

EXPIRED METARs :
  • 252153Z AUTO 03012G19KT 10SM CLR M22/M26 A2996 RMK AO2 SLP158 T12171261 TSNO
  • 252053Z AUTO 02008G19KT 10SM CLR M23/M27 A2996 RMK AO2 SLP160 T12281267 52004 TSNO

TAF PAMC
Valid from the 25 at 18:00 until the 26 at 18:00 UTC


251724Z 2518/2618 01008KT P6SM SKC



MET'MAP, your aeronautical weather chart ! - Copyright ORBIFLY December 2007 - Disclaimer

ORBIFLY MET'MAP TEAM :

Programming & Development : Alexandra Zaïnal
Concept & original design : Baudouin d'Aumeries
Assistance for programming : Marc-Olivier Méhu
Technical & hardware support : Manuel Goepfert

Contact : metmap@orbifly.com




SOURCES & CREDITS :

   NOAA       Earth
Advisory